Batman, Turkey
Current Conditions -  °F | °C
As of 12:50 AM on Wednesday 26 Nov 2014 (Local Time) from LTCJ Reporting Station
Light Fog Light Fog  
Wind Chill: 35°   Ceiling: 200
Heat Index: 39°   Visibility: 0.18mi
Dew Point: 39°   Wind: 6mph
Humidity: 100%   Direction: 30°NNE
Pressure: 29.94"   Gusts: NA
Location:  37.89°N, 41.13°E
Report Text: LTCJ 252150Z 03005KT 0300 R02/0275U R20/1000N BCFG VV002 04/04 Q1014
Loading
Personal Weather Stations






























Interactive Weather Map New forecast layout! Learn more

10-Day Weather Forecast

Advertisements
Track Severe Weather on mobile